createdAt,value
2023-01-13T00:00:50.464Z,76.16
2023-01-13T00:05:52.258Z,75.75
2023-01-13T00:10:54.232Z,75.26
2023-01-13T00:16:00.770Z,74.64
2023-01-13T00:21:05.576Z,74.42
2023-01-13T00:26:11.204Z,74.39
2023-01-13T00:31:15.519Z,74.01
2023-01-13T00:36:19.688Z,73.80
2023-01-13T00:41:23.583Z,73.79
2023-01-13T00:46:25.306Z,73.84
2023-01-13T00:51:27.734Z,73.72
2023-01-13T00:56:41.341Z,73.84
2023-01-13T01:01:43.387Z,73.82
2023-01-13T01:06:45.466Z,73.70
2023-01-13T01:11:47.172Z,73.82
2023-01-13T01:16:48.837Z,73.52
2023-01-13T01:21:50.715Z,73.30
2023-01-13T01:26:52.419Z,73.34
2023-01-13T01:31:54.282Z,72.62
2023-01-13T01:36:56.065Z,72.33
2023-01-13T01:42:16.581Z,71.88
2023-01-13T01:47:18.732Z,71.75
2023-01-13T01:52:28.614Z,71.46
2023-01-13T01:57:42.338Z,71.25
2023-01-13T02:02:47.424Z,71.07
2023-01-13T02:07:52.651Z,71.28
2023-01-13T02:12:58.798Z,71.01
2023-01-13T02:18:19.597Z,71.13
2023-01-13T02:24:30.166Z,71.02
2023-01-13T02:30:00.254Z,71.01
2023-01-13T02:35:13.408Z,71.02
2023-01-13T02:40:26.153Z,70.52
2023-01-13T02:45:46.781Z,70.59
2023-01-13T02:50:54.726Z,70.57
2023-01-13T02:55:58.943Z,70.26
2023-01-13T03:01:00.771Z,70.36
2023-01-13T03:06:29.931Z,70.24
2023-01-13T03:11:43.307Z,70.30
2023-01-13T03:16:54.101Z,70.46
2023-01-13T03:22:08.270Z,70.53
2023-01-13T03:27:18.419Z,70.62
2023-01-13T03:32:38.587Z,70.37
2023-01-13T03:37:45.641Z,70.33
2023-01-13T03:43:18.562Z,70.15
2023-01-13T03:48:25.319Z,70.16
2023-01-13T03:53:36.263Z,70.07
2023-01-13T03:58:41.839Z,70.13
2023-01-13T04:03:57.272Z,70.03
2023-01-13T04:09:10.047Z,69.76
2023-01-13T04:14:13.885Z,69.53
2023-01-13T04:19:15.671Z,69.05
2023-01-13T04:24:17.333Z,68.43
2023-01-13T04:29:19.311Z,68.23
2023-01-13T04:34:21.173Z,68.23
2023-01-13T04:39:22.986Z,67.93
2023-01-13T04:44:25.765Z,67.88
2023-01-13T04:49:27.680Z,67.79
2023-01-13T04:54:29.537Z,67.84
2023-01-13T04:59:33.279Z,67.84
2023-01-13T05:04:36.618Z,67.84
2023-01-13T05:09:38.391Z,67.73
2023-01-13T05:14:58.796Z,67.85
2023-01-13T05:20:00.509Z,67.92
2023-01-13T05:25:20.672Z,67.77
2023-01-13T05:30:25.839Z,67.94
2023-01-13T05:35:29.162Z,67.66
2023-01-13T05:40:49.653Z,67.74
2023-01-13T05:46:07.891Z,67.54
2023-01-13T05:51:12.405Z,67.83
2023-01-13T05:56:14.120Z,67.65
2023-01-13T06:01:16.137Z,67.32
2023-01-13T06:06:17.872Z,67.12
2023-01-13T06:11:19.533Z,67.25
2023-01-13T06:16:21.275Z,67.32
2023-01-13T06:21:23.102Z,67.54
2023-01-13T06:26:28.061Z,67.45
2023-01-13T06:31:30.989Z,67.54
2023-01-13T06:36:37.486Z,67.23
2023-01-13T06:41:58.073Z,67.45
2023-01-13T06:46:59.886Z,67.42
2023-01-13T06:52:01.839Z,67.47
2023-01-13T06:57:03.724Z,67.60
2023-01-13T07:02:05.697Z,67.69
2023-01-13T07:07:10.270Z,67.88
2023-01-13T07:12:12.149Z,68.12
2023-01-13T07:17:13.821Z,68.04
2023-01-13T07:22:15.537Z,68.18
2023-01-13T07:27:17.298Z,68.23
2023-01-13T07:32:19.111Z,67.99
2023-01-13T07:37:21.056Z,67.69
2023-01-13T07:42:41.365Z,67.57
2023-01-13T07:47:43.172Z,67.36
2023-01-13T07:52:44.878Z,67.32
2023-01-13T07:57:48.107Z,67.11
2023-01-13T08:02:49.994Z,67.11
2023-01-13T08:07:51.839Z,66.99
2023-01-13T08:13:12.466Z,66.43
2023-01-13T08:18:14.446Z,66.12
2023-01-13T08:23:16.581Z,66.31
2023-01-13T08:28:18.511Z,66.28
2023-01-13T08:33:20.368Z,66.37
2023-01-13T08:38:22.859Z,66.31
2023-01-13T08:43:24.539Z,66.11
2023-01-13T08:48:29.055Z,66.14
2023-01-13T08:53:32.394Z,65.70
2023-01-13T08:58:34.097Z,65.15
2023-01-13T09:03:35.994Z,64.48
2023-01-13T09:08:37.752Z,64.18
2023-01-13T09:13:40.050Z,63.92
2023-01-13T09:18:41.822Z,63.34
2023-01-13T09:23:43.517Z,62.91
2023-01-13T09:28:45.379Z,62.27
2023-01-13T09:34:05.778Z,61.49
2023-01-13T09:39:07.508Z,61.43
2023-01-13T09:44:17.180Z,60.38
2023-01-13T09:49:37.692Z,60.16
2023-01-13T09:54:48.397Z,60.07
2023-01-13T09:59:50.513Z,59.80
2023-01-13T10:05:22.272Z,60.02
2023-01-13T10:10:48.688Z,59.77
2023-01-13T10:16:03.221Z,59.14
2023-01-13T10:21:27.076Z,59.09
2023-01-13T10:27:05.727Z,59.02
2023-01-13T10:32:07.452Z,59.04
2023-01-13T10:37:20.774Z,58.36
2023-01-13T10:42:24.224Z,58.65
2023-01-13T10:47:28.915Z,58.11
2023-01-13T10:52:33.353Z,58.40
2023-01-13T10:57:38.307Z,58.23
2023-01-13T11:02:40.112Z,57.97
2023-01-13T11:07:50.421Z,58.59
2023-01-13T11:13:09.797Z,58.84
2023-01-13T11:18:51.869Z,59.21
2023-01-13T11:24:12.632Z,59.41
2023-01-13T11:29:56.415Z,59.69
2023-01-13T11:35:03.415Z,60.49
2023-01-13T11:40:21.537Z,61.03
2023-01-13T11:45:29.527Z,61.34
2023-01-13T11:50:42.172Z,61.75
2023-01-13T11:55:49.695Z,62.13
2023-01-13T12:01:28.842Z,61.60
2023-01-13T12:06:39.070Z,61.59
2023-01-13T12:12:06.460Z,61.11
2023-01-13T12:17:20.727Z,61.02
2023-01-13T12:22:26.623Z,60.58
2023-01-13T12:27:49.354Z,60.44
2023-01-13T12:32:54.731Z,60.23
2023-01-13T12:38:14.486Z,60.61
2023-01-13T12:43:39.283Z,60.69
2023-01-13T12:48:55.304Z,60.64
2023-01-13T12:53:58.128Z,60.98
2023-01-13T12:59:21.454Z,61.21
2023-01-13T13:04:48.108Z,61.45
2023-01-13T13:09:56.230Z,61.99
2023-01-13T13:14:57.962Z,62.17
2023-01-13T13:20:00.297Z,61.84
2023-01-13T13:25:01.910Z,61.74
2023-01-13T13:30:09.716Z,61.68
2023-01-13T13:35:20.459Z,61.47
2023-01-13T13:40:41.119Z,62.06
2023-01-13T13:46:11.025Z,61.97
2023-01-13T13:51:39.139Z,61.98
2023-01-13T13:56:45.159Z,62.47
2023-01-13T14:01:53.663Z,62.51
2023-01-13T14:07:04.938Z,62.79
2023-01-13T14:12:19.844Z,63.11
2023-01-13T14:17:30.360Z,63.30
2023-01-13T14:22:32.812Z,63.32
2023-01-13T14:27:35.374Z,63.51
2023-01-13T14:32:38.061Z,63.55
2023-01-13T14:37:41.999Z,63.58
2023-01-13T14:42:43.716Z,63.78
2023-01-13T14:47:52.443Z,63.73
2023-01-13T14:52:58.315Z,63.41
2023-01-13T14:58:21.999Z,63.33
2023-01-13T15:03:23.693Z,63.88
2023-01-13T15:08:28.837Z,64.06
2023-01-13T15:13:53.377Z,64.50
2023-01-13T15:18:56.648Z,64.59
2023-01-13T15:23:58.585Z,64.85
2023-01-13T15:29:00.858Z,65.02
2023-01-13T15:34:02.535Z,65.13
2023-01-13T15:39:04.477Z,65.41
2023-01-13T15:44:24.857Z,65.25
2023-01-13T15:49:46.031Z,65.47
2023-01-13T15:54:48.224Z,65.50
2023-01-13T15:59:51.512Z,65.73
2023-01-13T16:04:54.454Z,66.08
2023-01-13T16:09:56.367Z,66.41
2023-01-13T16:14:58.192Z,66.59
2023-01-13T16:20:00.000Z,66.77
2023-01-13T16:25:01.997Z,66.90
2023-01-13T16:30:04.217Z,67.18
2023-01-13T16:35:06.640Z,67.34
2023-01-13T16:40:21.347Z,67.32
2023-01-13T16:45:23.803Z,67.45
2023-01-13T16:50:35.209Z,67.48
2023-01-13T16:55:38.964Z,67.65
2023-01-13T17:00:41.410Z,67.58
2023-01-13T17:05:46.783Z,67.66
2023-01-13T17:10:50.897Z,67.86
2023-01-13T17:15:52.895Z,68.09
2023-01-13T17:20:54.561Z,68.07
2023-01-13T17:25:56.497Z,68.13
2023-01-13T17:30:58.213Z,67.99
2023-01-13T17:36:01.637Z,68.04
2023-01-13T17:41:04.438Z,68.26
2023-01-13T17:46:12.579Z,68.23
2023-01-13T17:51:16.491Z,68.93
2023-01-13T17:56:18.836Z,69.68
2023-01-13T18:01:22.459Z,70.84
2023-01-13T18:06:25.085Z,71.71
2023-01-13T18:11:27.110Z,72.31
2023-01-13T18:16:31.148Z,72.83
2023-01-13T18:21:51.462Z,73.44
2023-01-13T18:27:12.050Z,73.92
2023-01-13T18:32:14.378Z,74.59
2023-01-13T18:37:16.997Z,75.08
2023-01-13T18:42:37.741Z,75.91
2023-01-13T18:47:42.162Z,76.52
2023-01-13T18:52:44.140Z,76.91
2023-01-13T18:57:46.529Z,77.22
2023-01-13T19:08:07.786Z,78.27
2023-01-13T19:13:09.533Z,78.57
2023-01-13T19:18:13.343Z,79.03
2023-01-13T19:23:15.344Z,79.18
2023-01-13T19:28:17.223Z,79.69
2023-01-13T19:33:19.934Z,79.85
2023-01-13T19:38:23.079Z,79.89
2023-01-13T19:43:45.003Z,80.43
2023-01-13T19:48:46.642Z,80.44
2023-01-13T19:53:48.402Z,80.19
2023-01-13T19:58:50.822Z,80.28
2023-01-13T20:03:52.635Z,80.26
2023-01-13T20:08:54.521Z,80.28
2023-01-13T20:13:58.134Z,80.70
2023-01-13T20:18:59.923Z,80.73
2023-01-13T20:24:01.650Z,80.83
2023-01-13T20:29:04.065Z,80.84
2023-01-13T20:34:05.881Z,80.96
2023-01-13T20:39:08.909Z,80.80
2023-01-13T20:44:11.721Z,80.73
2023-01-13T20:49:15.116Z,80.67
2023-01-13T20:54:18.417Z,80.64
2023-01-13T20:59:20.754Z,80.72
2023-01-13T21:04:22.609Z,80.66
2023-01-13T21:09:26.548Z,80.71
2023-01-13T21:15:07.163Z,80.59
2023-01-13T21:20:12.072Z,80.40
2023-01-13T21:25:15.792Z,80.47
2023-01-13T21:30:18.100Z,80.30
2023-01-13T21:35:19.885Z,80.44
2023-01-13T21:40:21.616Z,80.24
2023-01-13T21:45:41.962Z,80.28
2023-01-13T21:50:43.657Z,80.15
2023-01-13T21:55:50.630Z,80.34
2023-01-13T22:00:52.564Z,80.18
2023-01-13T22:05:55.758Z,80.11
2023-01-13T22:10:58.233Z,80.08
2023-01-13T22:16:04.327Z,80.04
2023-01-13T22:21:06.326Z,80.07
2023-01-13T22:26:08.827Z,80.11
2023-01-13T22:31:12.890Z,80.06
2023-01-13T22:36:15.331Z,80.09
2023-01-13T22:41:17.073Z,79.77
2023-01-13T22:46:19.122Z,79.89
2023-01-13T22:51:22.688Z,79.92
2023-01-13T22:56:26.047Z,79.77
2023-01-13T23:01:31.352Z,79.71
2023-01-13T23:06:34.617Z,79.65
2023-01-13T23:11:36.756Z,79.39
2023-01-13T23:16:40.743Z,79.67
2023-01-13T23:21:42.659Z,79.32
2023-01-13T23:26:44.441Z,79.53
2023-01-13T23:31:47.072Z,79.17
2023-01-13T23:36:48.819Z,79.33
2023-01-13T23:41:51.093Z,79.23
2023-01-13T23:46:52.962Z,79.19
2023-01-13T23:51:54.677Z,79.16
2023-01-13T23:56:57.394Z,79.34
